Yass, Australia
Current Conditions -  °F | °C
As of 12:00 PM on Monday 22 Dec 2014 (Local Time) from YSCB Reporting Station
Broken Clouds Broken Clouds  
Wind Chill: 86°   Ceiling: 20000
Heat Index: 86°   Visibility: 6mi
Dew Point: 59°   Wind: 7mph
Humidity: 40%   Direction: 250°WSW
Pressure: 30"   Gusts: NA
Location:  34.84°S, 148.91°E
Report Text: YSCB 220100Z 25006KT 9999 FEW050TCU BKN200 30/15 Q1016 FM0200 36010KT 9999 -SHRA SCT050
Loading
Personal Weather Stations






























Interactive Weather Map New forecast layout! Learn more

10-Day Weather Forecast

Advertisements
Track Severe Weather on mobile